createdAt,value
2023-02-18T00:01:33.406Z,21.93
2023-02-18T00:04:00.987Z,21.88
2023-02-18T00:06:34.367Z,24.80
2023-02-18T00:09:02.576Z,21.83
2023-02-18T00:11:31.394Z,25.02
2023-02-18T00:13:59.849Z,23.53
2023-02-18T00:16:27.829Z,23.58
2023-02-18T00:19:00.724Z,24.10
2023-02-18T00:21:27.649Z,22.67
2023-02-18T00:23:55.116Z,24.42
2023-02-18T00:26:21.750Z,23.47
2023-02-18T00:28:49.356Z,24.13
2023-02-18T00:31:18.741Z,23.85
2023-02-18T00:33:45.395Z,24.13
2023-02-18T00:36:15.032Z,23.25
2023-02-18T00:38:50.102Z,22.63
2023-02-18T00:41:17.912Z,23.17
2023-02-18T00:43:44.639Z,22.02
2023-02-18T00:46:11.938Z,23.60
2023-02-18T00:48:38.988Z,23.02
2023-02-18T00:51:06.749Z,22.43
2023-02-18T00:53:34.212Z,22.35
2023-02-18T00:56:01.140Z,23.75
2023-02-18T00:58:27.925Z,23.95
2023-02-18T01:00:55.577Z,23.42
2023-02-18T01:03:23.704Z,23.73
2023-02-18T01:05:51.286Z,23.42
2023-02-18T01:08:19.387Z,22.80
2023-02-18T01:10:48.177Z,23.63
2023-02-18T01:13:16.298Z,22.90
2023-02-18T01:15:44.362Z,23.17
2023-02-18T01:18:11.356Z,25.77
2023-02-18T01:20:39.978Z,24.52
2023-02-18T01:23:08.155Z,26.02
2023-02-18T01:25:34.800Z,23.80
2023-02-18T01:28:01.374Z,25.50
2023-02-18T01:30:28.325Z,21.15
2023-02-18T01:32:56.623Z,23.80
2023-02-18T01:35:24.209Z,23.25
2023-02-18T01:37:51.460Z,22.77
2023-02-18T01:40:21.466Z,22.93
2023-02-18T01:42:48.728Z,23.13
2023-02-18T01:45:49.407Z,21.33
2023-02-18T01:48:27.593Z,21.48
2023-02-18T01:51:09.335Z,20.25
2023-02-18T01:54:05.995Z,21.13
2023-02-18T01:56:35.423Z,23.48
2023-02-18T01:59:07.875Z,21.38
2023-02-18T02:01:34.858Z,19.52
2023-02-18T02:04:01.759Z,22.48
2023-02-18T02:06:28.432Z,20.83
2023-02-18T02:08:58.395Z,21.90
2023-02-18T02:11:50.345Z,22.10
2023-02-18T02:14:52.806Z,20.83
2023-02-18T02:17:31.391Z,23.05
2023-02-18T02:20:30.442Z,20.80
2023-02-18T02:23:30.560Z,23.92
2023-02-18T02:26:35.499Z,23.58
2023-02-18T02:29:14.165Z,21.88
2023-02-18T02:32:27.423Z,21.70
2023-02-18T02:35:01.299Z,24.53
2023-02-18T02:37:33.587Z,23.63
2023-02-18T02:40:48.507Z,22.25
2023-02-18T02:43:28.366Z,21.45
2023-02-18T02:46:01.788Z,19.27
2023-02-18T02:48:47.966Z,18.13
2023-02-18T02:51:29.787Z,18.50
2023-02-18T02:54:13.828Z,18.90
2023-02-18T02:56:40.973Z,17.38
2023-02-18T02:59:14.056Z,17.02
2023-02-18T03:02:13.305Z,17.17
2023-02-18T03:05:06.800Z,14.07
2023-02-18T03:07:39.517Z,14.30
2023-02-18T03:10:44.309Z,13.90
2023-02-18T03:13:31.898Z,15.02
2023-02-18T03:16:16.163Z,16.43
2023-02-18T03:18:51.634Z,14.63
2023-02-18T03:21:26.612Z,14.15
2023-02-18T03:24:05.822Z,17.08
2023-02-18T03:26:36.384Z,17.08
2023-02-18T03:29:07.418Z,17.00
2023-02-18T03:31:38.454Z,17.88
2023-02-18T03:34:14.027Z,19.17
2023-02-18T03:36:43.468Z,17.85
2023-02-18T03:39:18.563Z,18.55
2023-02-18T03:41:45.988Z,19.27
2023-02-18T03:44:13.167Z,19.90
2023-02-18T03:46:43.608Z,18.77
2023-02-18T03:49:11.822Z,21.27
2023-02-18T03:51:38.494Z,21.27
2023-02-18T03:54:05.250Z,19.03
2023-02-18T03:56:31.874Z,20.38
2023-02-18T03:58:58.366Z,20.45
2023-02-18T04:01:25.125Z,21.35
2023-02-18T04:03:51.836Z,22.08
2023-02-18T04:06:18.310Z,20.00
2023-02-18T04:08:44.808Z,20.33
2023-02-18T04:11:11.318Z,20.73
2023-02-18T04:13:37.866Z,18.52
2023-02-18T04:16:04.963Z,19.80
2023-02-18T04:18:31.434Z,19.80
2023-02-18T04:20:58.254Z,18.15
2023-02-18T04:23:24.779Z,17.73
2023-02-18T04:25:51.327Z,17.25
2023-02-18T04:28:18.140Z,16.52
2023-02-18T04:30:46.228Z,18.37
2023-02-18T04:33:12.911Z,14.93
2023-02-18T04:35:42.038Z,17.25
2023-02-18T04:38:10.498Z,14.35
2023-02-18T04:40:37.078Z,14.25
2023-02-18T04:43:03.992Z,13.50
2023-02-18T04:45:30.691Z,12.35
2023-02-18T04:47:57.202Z,11.63
2023-02-18T04:50:23.771Z,12.27
2023-02-18T04:52:50.530Z,11.43
2023-02-18T04:55:17.007Z,9.83
2023-02-18T04:57:43.476Z,8.70
2023-02-18T05:00:14.772Z,7.57
2023-02-18T05:02:41.253Z,7.20
2023-02-18T05:05:07.879Z,6.50
2023-02-18T05:07:35.321Z,7.40
2023-02-18T05:10:01.884Z,5.68
2023-02-18T05:12:28.464Z,5.75
2023-02-18T05:14:54.961Z,6.10
2023-02-18T05:17:21.495Z,5.43
2023-02-18T05:19:47.957Z,4.73
2023-02-18T05:22:14.812Z,5.07
2023-02-18T05:24:41.363Z,4.72
2023-02-18T05:27:08.099Z,3.65
2023-02-18T05:29:34.604Z,4.45
2023-02-18T05:32:01.148Z,3.90
2023-02-18T05:34:27.754Z,4.03
2023-02-18T05:36:54.246Z,3.65
2023-02-18T05:39:20.725Z,4.40
2023-02-18T05:41:47.201Z,3.72
2023-02-18T05:44:32.345Z,4.23
2023-02-18T05:47:04.727Z,3.83
2023-02-18T05:49:33.581Z,3.78
2023-02-18T05:52:00.354Z,4.25
2023-02-18T05:54:27.768Z,4.50
2023-02-18T05:56:54.537Z,3.97
2023-02-18T05:59:21.522Z,4.28
2023-02-18T06:01:48.010Z,4.00
2023-02-18T06:04:15.045Z,4.00
2023-02-18T06:06:42.121Z,3.50
2023-02-18T06:09:09.557Z,4.17
2023-02-18T06:11:36.308Z,4.32
2023-02-18T06:14:03.726Z,4.30
2023-02-18T06:16:30.461Z,3.75
2023-02-18T06:18:57.007Z,3.88
2023-02-18T06:21:24.113Z,3.60
2023-02-18T06:23:50.908Z,3.83
2023-02-18T06:26:17.859Z,3.85
2023-02-18T06:28:44.377Z,3.85
2023-02-18T06:31:11.046Z,3.47
2023-02-18T06:33:37.601Z,4.00
2023-02-18T06:36:11.542Z,4.10
2023-02-18T06:38:43.389Z,4.55
2023-02-18T06:41:11.261Z,4.70
2023-02-18T06:43:38.336Z,5.32
2023-02-18T06:46:05.606Z,6.03
2023-02-18T06:48:32.553Z,7.03
2023-02-18T06:50:59.406Z,7.03
2023-02-18T06:53:25.915Z,7.68
2023-02-18T06:55:52.451Z,7.75
2023-02-18T06:58:18.925Z,7.50
2023-02-18T07:00:45.500Z,11.30
2023-02-18T07:03:14.268Z,9.48
2023-02-18T07:05:41.750Z,10.48
2023-02-18T07:08:09.494Z,10.98
2023-02-18T07:10:36.027Z,10.00
2023-02-18T07:13:02.584Z,11.50
2023-02-18T07:15:29.240Z,10.60
2023-02-18T07:17:55.846Z,12.02
2023-02-18T07:20:22.972Z,11.05
2023-02-18T07:22:50.001Z,10.27
2023-02-18T07:25:16.594Z,10.57
2023-02-18T07:27:43.336Z,11.40
2023-02-18T07:30:10.518Z,10.95
2023-02-18T07:32:37.080Z,10.23
2023-02-18T07:35:05.157Z,11.17
2023-02-18T07:37:32.217Z,10.55
2023-02-18T07:39:58.748Z,9.10
2023-02-18T07:42:25.268Z,8.43
2023-02-18T07:44:51.755Z,8.18
2023-02-18T07:47:19.622Z,8.07
2023-02-18T07:49:46.797Z,6.35
2023-02-18T07:52:14.873Z,5.88
2023-02-18T07:54:41.504Z,5.25
2023-02-18T07:57:08.174Z,4.93
2023-02-18T07:59:34.651Z,5.67
2023-02-18T08:02:01.188Z,5.55
2023-02-18T08:04:27.960Z,6.03
2023-02-18T08:06:54.485Z,5.40
2023-02-18T08:09:20.957Z,6.78
2023-02-18T08:11:47.390Z,7.57
2023-02-18T08:14:13.911Z,7.53
2023-02-18T08:16:40.654Z,8.05
2023-02-18T08:19:07.989Z,7.18
2023-02-18T08:21:34.513Z,7.40
2023-02-18T08:24:01.054Z,9.47
2023-02-18T08:26:27.535Z,9.15
2023-02-18T08:28:54.048Z,8.85
2023-02-18T08:31:25.157Z,9.35
2023-02-18T08:33:55.679Z,8.52
2023-02-18T08:36:23.153Z,8.43
2023-02-18T08:38:49.779Z,9.77
2023-02-18T08:41:16.442Z,9.05
2023-02-18T08:43:43.040Z,9.55
2023-02-18T08:46:15.957Z,9.20
2023-02-18T08:48:43.023Z,9.87
2023-02-18T08:51:15.987Z,8.93
2023-02-18T08:53:42.502Z,9.80
2023-02-18T08:56:09.951Z,8.02
2023-02-18T08:58:37.583Z,8.45
2023-02-18T09:01:10.818Z,8.27
2023-02-18T09:03:38.342Z,7.55
2023-02-18T09:06:05.581Z,7.55
2023-02-18T09:08:32.360Z,8.00
2023-02-18T09:11:01.018Z,8.20
2023-02-18T09:13:27.906Z,8.73
2023-02-18T09:15:59.462Z,8.07
2023-02-18T09:18:26.255Z,6.68
2023-02-18T09:20:56.661Z,5.75
2023-02-18T09:23:23.744Z,6.45
2023-02-18T09:25:50.356Z,6.33
2023-02-18T09:28:16.862Z,5.13
2023-02-18T09:30:43.371Z,5.50
2023-02-18T09:33:09.921Z,5.40
2023-02-18T09:35:44.373Z,6.18
2023-02-18T09:38:12.612Z,4.90
2023-02-18T09:40:43.491Z,5.28
2023-02-18T09:43:27.804Z,5.00
2023-02-18T09:45:55.040Z,6.25
2023-02-18T09:48:28.442Z,5.30
2023-02-18T09:50:55.427Z,5.97
2023-02-18T09:53:23.531Z,4.88
2023-02-18T09:55:53.332Z,5.43
2023-02-18T09:58:23.668Z,5.85
2023-02-18T10:00:54.183Z,5.22
2023-02-18T10:03:23.490Z,5.23
2023-02-18T10:05:58.108Z,6.32
2023-02-18T10:08:30.088Z,6.20
2023-02-18T10:10:56.907Z,6.80
2023-02-18T10:13:29.880Z,6.18
2023-02-18T10:15:56.560Z,6.63
2023-02-18T10:21:04.654Z,6.40
2023-02-18T10:23:34.105Z,6.72
2023-02-18T10:26:05.902Z,6.38
2023-02-18T10:28:32.878Z,6.43
2023-02-18T10:31:03.642Z,6.10
2023-02-18T10:33:30.201Z,6.20
2023-02-18T10:36:17.915Z,5.80
2023-02-18T10:39:22.328Z,5.53
2023-02-18T10:42:13.786Z,5.30
2023-02-18T10:44:46.100Z,5.53
2023-02-18T10:47:24.836Z,5.30
2023-02-18T10:50:04.750Z,5.63
2023-02-18T10:52:38.490Z,5.70
2023-02-18T10:55:09.450Z,4.40
2023-02-18T10:57:46.150Z,4.72
2023-02-18T11:00:27.105Z,5.30
2023-02-18T11:03:17.430Z,4.97
2023-02-18T11:05:45.348Z,4.35
2023-02-18T11:08:18.185Z,4.10
2023-02-18T11:10:46.842Z,3.97
2023-02-18T11:13:17.297Z,3.50
2023-02-18T11:16:00.490Z,3.88
2023-02-18T11:18:46.425Z,3.78
2023-02-18T11:21:21.615Z,3.30
2023-02-18T11:23:51.641Z,3.55
2023-02-18T11:26:27.862Z,2.80
2023-02-18T11:29:01.131Z,2.30
2023-02-18T11:31:41.691Z,2.60
2023-02-18T11:34:16.964Z,2.77
2023-02-18T11:36:43.628Z,2.30
2023-02-18T11:39:28.031Z,2.78
2023-02-18T11:42:05.992Z,1.63
2023-02-18T11:44:32.471Z,2.00
2023-02-18T11:47:20.806Z,2.30
2023-02-18T11:50:04.136Z,2.17
2023-02-18T11:52:36.704Z,2.20
2023-02-18T11:55:08.035Z,2.10
2023-02-18T11:57:38.304Z,2.67
2023-02-18T12:00:16.716Z,1.80
2023-02-18T12:02:43.353Z,1.65
2023-02-18T12:05:16.337Z,2.22
2023-02-18T12:07:47.427Z,1.70
2023-02-18T12:10:42.050Z,2.40
2023-02-18T12:13:23.902Z,1.50
2023-02-18T12:16:17.296Z,1.40
2023-02-18T12:19:02.199Z,1.20
2023-02-18T12:21:36.539Z,1.17
2023-02-18T12:24:12.102Z,1.73
2023-02-18T12:26:54.591Z,1.23
2023-02-18T12:29:51.631Z,1.63
2023-02-18T12:32:41.718Z,1.48
2023-02-18T12:35:38.232Z,1.42
2023-02-18T12:38:32.376Z,2.15
2023-02-18T12:41:07.774Z,1.33
2023-02-18T12:43:56.256Z,1.83
2023-02-18T12:46:44.130Z,1.55
2023-02-18T12:49:52.762Z,1.80
2023-02-18T12:52:38.615Z,1.60
2023-02-18T12:55:19.319Z,2.03
2023-02-18T12:58:04.044Z,2.08
2023-02-18T13:00:45.835Z,1.58
2023-02-18T13:03:21.599Z,1.40
2023-02-18T13:05:54.468Z,1.58
2023-02-18T13:08:49.695Z,1.07
2023-02-18T13:11:25.370Z,1.60
2023-02-18T13:14:09.477Z,1.30
2023-02-18T13:16:37.997Z,1.60
2023-02-18T13:19:21.513Z,1.50
2023-02-18T13:21:50.842Z,1.40
2023-02-18T13:24:28.006Z,1.45
2023-02-18T13:27:03.301Z,1.55
2023-02-18T13:30:08.259Z,1.30
2023-02-18T13:32:40.435Z,1.33
2023-02-18T13:35:12.937Z,1.57
2023-02-18T13:37:55.212Z,1.90
2023-02-18T13:40:25.998Z,1.30
2023-02-18T13:42:53.549Z,1.48
2023-02-18T13:45:31.840Z,1.40
2023-02-18T13:48:00.647Z,1.53
2023-02-18T13:50:31.053Z,1.25
2023-02-18T13:53:09.272Z,1.00
2023-02-18T13:55:39.507Z,1.20
2023-02-18T13:58:15.255Z,1.20
2023-02-18T14:00:49.871Z,1.30
2023-02-18T14:03:38.550Z,1.00
2023-02-18T14:06:40.050Z,0.93
2023-02-18T14:09:12.665Z,1.30
2023-02-18T14:11:49.297Z,1.30
2023-02-18T14:14:28.224Z,1.17
2023-02-18T14:17:38.416Z,1.08
2023-02-18T14:20:04.959Z,1.05
2023-02-18T14:22:31.400Z,1.65
2023-02-18T14:25:34.362Z,1.42
2023-02-18T14:28:04.443Z,1.20
2023-02-18T14:30:40.321Z,1.00
2023-02-18T14:33:15.046Z,1.00
2023-02-18T14:36:02.123Z,1.30
2023-02-18T14:39:00.546Z,1.60
2023-02-18T14:41:37.711Z,1.20
2023-02-18T14:44:21.865Z,1.35
2023-02-18T14:47:00.321Z,1.00
2023-02-18T14:49:49.701Z,1.20
2023-02-18T14:52:27.226Z,1.40
2023-02-18T14:54:53.828Z,1.03
2023-02-18T14:57:27.640Z,1.15
2023-02-18T14:59:59.612Z,1.38
2023-02-18T15:02:31.043Z,1.20
2023-02-18T15:05:37.244Z,1.13
2023-02-18T15:08:10.725Z,1.47
2023-02-18T15:10:58.313Z,0.90
2023-02-18T15:13:36.059Z,1.23
2023-02-18T15:16:09.004Z,1.15
2023-02-18T15:18:42.134Z,1.40
2023-02-18T15:21:24.467Z,1.10
2023-02-18T15:23:51.705Z,1.33
2023-02-18T15:26:18.341Z,1.35
2023-02-18T15:29:30.390Z,1.80
2023-02-18T15:31:57.998Z,1.10
2023-02-18T15:34:34.050Z,1.57
2023-02-18T15:37:02.094Z,1.90
2023-02-18T15:39:29.259Z,1.48
2023-02-18T15:42:08.224Z,1.85
2023-02-18T15:44:36.672Z,1.83
2023-02-18T15:47:07.601Z,1.43
2023-02-18T15:49:38.046Z,1.42
2023-02-18T15:52:05.714Z,1.30
2023-02-18T15:54:32.724Z,1.77
2023-02-18T15:57:03.314Z,1.60
2023-02-18T15:59:33.624Z,1.40
2023-02-18T16:02:17.322Z,1.10
2023-02-18T16:04:48.872Z,1.02
2023-02-18T16:07:30.999Z,0.98
2023-02-18T16:10:19.698Z,1.08
2023-02-18T16:12:50.970Z,1.17
2023-02-18T16:15:30.578Z,1.30
2023-02-18T16:17:59.154Z,1.30
2023-02-18T16:20:37.289Z,1.73
2023-02-18T16:23:11.499Z,1.67
2023-02-18T16:25:50.538Z,1.63
2023-02-18T16:28:32.256Z,1.98
2023-02-18T16:30:58.796Z,1.60
2023-02-18T16:33:25.337Z,1.50
2023-02-18T16:35:51.891Z,2.25
2023-02-18T16:38:21.499Z,1.60
2023-02-18T16:40:48.365Z,1.80
2023-02-18T16:43:23.882Z,2.00
2023-02-18T16:45:51.545Z,1.77
2023-02-18T16:48:20.614Z,1.90
2023-02-18T16:50:49.409Z,2.10
2023-02-18T16:53:15.975Z,1.77
2023-02-18T16:55:42.504Z,1.88
2023-02-18T16:58:09.126Z,2.33
2023-02-18T17:00:35.817Z,2.55
2023-02-18T17:03:02.457Z,2.30
2023-02-18T17:05:31.577Z,3.10
2023-02-18T17:08:30.642Z,2.30
2023-02-18T17:10:58.376Z,2.20
2023-02-18T17:13:28.250Z,2.42
2023-02-18T17:15:56.817Z,2.60
2023-02-18T17:18:24.159Z,2.30
2023-02-18T17:20:52.053Z,2.45
2023-02-18T17:23:21.707Z,2.40
2023-02-18T17:25:49.593Z,2.35
2023-02-18T17:28:19.115Z,2.20
2023-02-18T17:30:57.101Z,2.60
2023-02-18T17:33:25.087Z,2.78
2023-02-18T17:35:52.048Z,3.50
2023-02-18T17:38:19.505Z,3.47
2023-02-18T17:40:46.310Z,3.57
2023-02-18T17:43:14.781Z,3.33
2023-02-18T17:45:53.424Z,3.30
2023-02-18T17:48:20.080Z,2.78
2023-02-18T17:50:46.948Z,3.30
2023-02-18T17:53:14.493Z,3.33
2023-02-18T17:55:42.585Z,3.20
2023-02-18T17:58:10.320Z,2.95
2023-02-18T18:00:39.720Z,2.70
2023-02-18T18:03:06.297Z,3.00
2023-02-18T18:05:35.963Z,3.33
2023-02-18T18:08:03.921Z,2.78
2023-02-18T18:10:33.315Z,2.70
2023-02-18T18:13:04.497Z,2.97
2023-02-18T18:15:35.873Z,2.85
2023-02-18T18:18:02.689Z,3.87
2023-02-18T18:20:31.630Z,3.28
2023-02-18T18:23:01.364Z,3.92
2023-02-18T18:25:30.661Z,4.90
2023-02-18T18:27:57.326Z,5.15
2023-02-18T18:30:29.557Z,5.23
2023-02-18T18:32:56.437Z,5.20
2023-02-18T18:35:27.482Z,5.22
2023-02-18T18:37:54.857Z,5.50
2023-02-18T18:40:25.104Z,6.40
2023-02-18T18:42:51.542Z,6.03
2023-02-18T18:45:27.276Z,6.15
2023-02-18T18:47:53.853Z,6.32
2023-02-18T18:50:22.985Z,6.00
2023-02-18T18:52:50.930Z,6.88
2023-02-18T18:55:25.422Z,7.57
2023-02-18T18:57:52.130Z,7.47
2023-02-18T19:00:20.753Z,8.30
2023-02-18T19:02:47.308Z,8.50
2023-02-18T19:05:32.161Z,9.68
2023-02-18T19:07:59.449Z,9.53
2023-02-18T19:10:31.559Z,9.05
2023-02-18T19:13:06.040Z,9.60
2023-02-18T19:15:33.156Z,9.88
2023-02-18T19:17:59.708Z,8.50
2023-02-18T19:20:32.326Z,8.73
2023-02-18T19:22:59.240Z,7.60
2023-02-18T19:25:26.290Z,8.98
2023-02-18T19:27:52.920Z,8.10
2023-02-18T19:30:23.031Z,5.90
2023-02-18T19:32:54.357Z,6.43
2023-02-18T19:35:21.378Z,6.00
2023-02-18T19:37:48.047Z,5.85
2023-02-18T19:40:19.744Z,6.55
2023-02-18T19:42:46.660Z,6.88
2023-02-18T19:45:14.409Z,7.67
2023-02-18T19:47:41.219Z,9.30
2023-02-18T19:50:10.074Z,8.85
2023-02-18T19:52:36.631Z,11.43
2023-02-18T19:55:03.549Z,10.43
2023-02-18T19:57:30.249Z,11.90
2023-02-18T19:59:56.753Z,11.40
2023-02-18T20:02:25.833Z,13.13
2023-02-18T20:04:54.613Z,12.70
2023-02-18T20:07:22.536Z,14.00
2023-02-18T20:09:53.242Z,14.97
2023-02-18T20:12:20.332Z,14.77
2023-02-18T20:14:49.017Z,15.35
2023-02-18T20:17:15.553Z,15.52
2023-02-18T20:19:42.123Z,16.45
2023-02-18T20:22:10.270Z,16.43
2023-02-18T20:24:37.768Z,17.23
2023-02-18T20:27:04.289Z,16.70
2023-02-18T20:29:33.435Z,19.23
2023-02-18T20:32:01.360Z,21.02
2023-02-18T20:34:28.400Z,19.80
2023-02-18T20:36:54.898Z,19.98
2023-02-18T20:39:22.627Z,20.83
2023-02-18T20:41:50.279Z,20.55
2023-02-18T20:44:18.338Z,20.23
2023-02-18T20:46:45.936Z,20.30
2023-02-18T20:49:14.767Z,21.25
2023-02-18T20:51:41.658Z,20.50
2023-02-18T20:54:12.460Z,20.88
2023-02-18T20:56:39.276Z,20.17
2023-02-18T20:59:06.062Z,19.73
2023-02-18T21:01:32.752Z,18.60
2023-02-18T21:03:59.275Z,19.45
2023-02-18T21:06:25.834Z,18.40
2023-02-18T21:08:53.927Z,16.80
2023-02-18T21:11:22.855Z,16.37
2023-02-18T21:13:50.908Z,15.25
2023-02-18T21:16:18.536Z,15.07
2023-02-18T21:18:45.785Z,14.68
2023-02-18T21:21:13.071Z,14.20
2023-02-18T21:23:40.559Z,14.40
2023-02-18T21:26:09.583Z,13.95
2023-02-18T21:28:36.089Z,13.40
2023-02-18T21:31:03.467Z,14.25
2023-02-18T21:33:30.037Z,15.20
2023-02-18T21:35:56.939Z,13.93
2023-02-18T21:38:23.555Z,12.75
2023-02-18T21:40:50.061Z,12.55
2023-02-18T21:43:16.526Z,13.55
2023-02-18T21:45:43.284Z,14.43
2023-02-18T21:48:28.456Z,14.20
2023-02-18T21:50:55.073Z,15.00
2023-02-18T21:53:21.553Z,13.82
2023-02-18T21:56:03.020Z,13.75
2023-02-18T21:58:30.277Z,13.25
2023-02-18T22:00:58.269Z,13.37
2023-02-18T22:03:24.927Z,12.63
2023-02-18T22:05:51.481Z,12.77
2023-02-18T22:08:17.981Z,13.65
2023-02-18T22:10:44.504Z,11.70
2023-02-18T22:13:10.943Z,10.63
2023-02-18T22:15:37.463Z,11.65
2023-02-18T22:18:04.022Z,10.43
2023-02-18T22:20:30.514Z,12.07
2023-02-18T22:22:57.035Z,10.27
2023-02-18T22:25:23.429Z,9.20
2023-02-18T22:27:49.961Z,9.70
2023-02-18T22:30:18.688Z,9.00
2023-02-18T22:32:45.274Z,8.43
2023-02-18T22:35:11.812Z,9.65
2023-02-18T22:37:38.273Z,8.63
2023-02-18T22:40:05.165Z,8.85
2023-02-18T22:42:31.706Z,11.07
2023-02-18T22:45:02.609Z,11.13
2023-02-18T22:47:29.626Z,13.18
2023-02-18T22:49:56.109Z,12.97
2023-02-18T22:52:22.601Z,12.32
2023-02-18T22:54:49.047Z,13.38
2023-02-18T22:57:15.546Z,13.68
2023-02-18T22:59:42.041Z,13.35
2023-02-18T23:02:08.590Z,12.50
2023-02-18T23:04:35.118Z,13.80
2023-02-18T23:07:01.759Z,14.82
2023-02-18T23:09:28.378Z,14.60
2023-02-18T23:11:58.043Z,14.15
2023-02-18T23:14:28.021Z,14.83
2023-02-18T23:17:17.451Z,15.85
2023-02-18T23:19:49.675Z,16.00
2023-02-18T23:22:19.362Z,14.73
2023-02-18T23:24:46.756Z,16.52
2023-02-18T23:27:14.849Z,15.40
2023-02-18T23:29:41.492Z,15.55
2023-02-18T23:32:08.772Z,15.27
2023-02-18T23:34:35.635Z,16.05
2023-02-18T23:37:02.122Z,14.30
2023-02-18T23:39:29.575Z,15.70
2023-02-18T23:41:57.028Z,15.45
2023-02-18T23:44:25.065Z,15.00
2023-02-18T23:46:52.029Z,17.25
2023-02-18T23:49:26.331Z,17.67
2023-02-18T23:51:54.287Z,20.77
2023-02-18T23:54:21.368Z,16.83
2023-02-18T23:56:48.284Z,15.88
2023-02-18T23:59:14.835Z,14.93
